Terminal Aerodrome Forecast
Issued by NWS Charleston, WV

Home | Current Version | Previous Version | Text Only | Print | Product List | Glossary On
Versions: 1 2 3 4 5 6 7 8 9 10 11 12 13 14 15 16 17 18 19 20 21 22
000
FTUS41 KRLX 260259 AAA
TAFBKW
TAF AMD
KBKW 260259Z 2603/2624 17006KT P6SM SCT045
     FM260500 17006KT P6SM BKN040
     FM260900 17005KT 5SM -SHRA BR BKN035
     FM261700 23007KT P6SM BKN028
     FM262000 21007KT P6SM VCTS BKN030CB=

USA.gov is the U.S. government's official web portal to all federal, state and local government web resources and services.